sensor_id;sensor_type;location;lat;lon;timestamp;P1;durP1;ratioP1;P2;durP2;ratioP2
56171;SDS011;42052;41.634;-0.946;2023-03-23T00:01:24;2.95;;;2.15;;
56171;SDS011;42052;41.634;-0.946;2023-03-23T00:04:15;3.50;;;2.35;;
56171;SDS011;42052;41.634;-0.946;2023-03-23T00:07:02;2.88;;;2.13;;
56171;SDS011;42052;41.634;-0.946;2023-03-23T00:09:49;2.45;;;1.98;;
56171;SDS011;42052;41.634;-0.946;2023-03-23T00:12:39;2.50;;;2.20;;
56171;SDS011;42052;41.634;-0.946;2023-03-23T00:15:27;2.95;;;2.20;;
56171;SDS011;42052;41.634;-0.946;2023-03-23T00:18:19;3.42;;;2.30;;
56171;SDS011;42052;41.634;-0.946;2023-03-23T00:21:06;2.88;;;2.03;;
56171;SDS011;42052;41.634;-0.946;2023-03-23T00:23:54;5.88;;;2.40;;
56171;SDS011;42052;41.634;-0.946;2023-03-23T00:26:40;3.65;;;2.33;;
56171;SDS011;42052;41.634;-0.946;2023-03-23T00:29:26;3.00;;;2.22;;
56171;SDS011;42052;41.634;-0.946;2023-03-23T00:32:13;2.55;;;2.00;;
56171;SDS011;42052;41.634;-0.946;2023-03-23T00:34:59;2.95;;;1.95;;
56171;SDS011;42052;41.634;-0.946;2023-03-23T00:37:46;3.92;;;2.60;;
56171;SDS011;42052;41.634;-0.946;2023-03-23T00:40:32;3.13;;;2.00;;
56171;SDS011;42052;41.634;-0.946;2023-03-23T00:43:20;3.55;;;2.28;;
56171;SDS011;42052;41.634;-0.946;2023-03-23T00:46:10;2.92;;;2.30;;
56171;SDS011;42052;41.634;-0.946;2023-03-23T00:48:56;2.50;;;2.17;;
56171;SDS011;42052;41.634;-0.946;2023-03-23T00:51:42;3.08;;;2.00;;
56171;SDS011;42052;41.634;-0.946;2023-03-23T00:54:29;3.65;;;2.10;;
56171;SDS011;42052;41.634;-0.946;2023-03-23T00:57:15;2.67;;;2.00;;
56171;SDS011;42052;41.634;-0.946;2023-03-23T01:00:03;3.33;;;2.10;;
56171;SDS011;42052;41.634;-0.946;2023-03-23T01:02:54;2.42;;;1.90;;
56171;SDS011;42052;41.634;-0.946;2023-03-23T01:05:41;3.42;;;2.10;;
56171;SDS011;42052;41.634;-0.946;2023-03-23T01:08:27;3.55;;;2.10;;
56171;SDS011;42052;41.634;-0.946;2023-03-23T01:11:14;3.00;;;2.40;;
56171;SDS011;42052;41.634;-0.946;2023-03-23T01:14:01;3.80;;;2.00;;
56171;SDS011;42052;41.634;-0.946;2023-03-23T01:16:48;3.70;;;2.08;;
56171;SDS011;42052;41.634;-0.946;2023-03-23T01:19:34;2.35;;;1.90;;
56171;SDS011;42052;41.634;-0.946;2023-03-23T01:22:20;2.75;;;1.92;;
56171;SDS011;42052;41.634;-0.946;2023-03-23T01:25:07;2.90;;;1.90;;
56171;SDS011;42052;41.634;-0.946;2023-03-23T01:27:55;3.88;;;2.45;;
56171;SDS011;42052;41.634;-0.946;2023-03-23T01:30:41;3.03;;;1.85;;
56171;SDS011;42052;41.634;-0.946;2023-03-23T01:33:28;3.45;;;2.08;;
56171;SDS011;42052;41.634;-0.946;2023-03-23T01:36:15;3.17;;;1.83;;
56171;SDS011;42052;41.634;-0.946;2023-03-23T01:39:04;2.95;;;2.00;;
56171;SDS011;42052;41.634;-0.946;2023-03-23T01:41:51;3.40;;;2.42;;
56171;SDS011;42052;41.634;-0.946;2023-03-23T01:47:23;2.80;;;2.00;;
56171;SDS011;42052;41.634;-0.946;2023-03-23T01:50:11;2.33;;;2.08;;
56171;SDS011;42052;41.634;-0.946;2023-03-23T01:52:58;3.20;;;2.28;;
56171;SDS011;42052;41.634;-0.946;2023-03-23T01:55:46;2.35;;;1.85;;
56171;SDS011;42052;41.634;-0.946;2023-03-23T01:58:36;3.22;;;1.85;;
56171;SDS011;42052;41.634;-0.946;2023-03-23T02:01:24;3.35;;;2.00;;
56171;SDS011;42052;41.634;-0.946;2023-03-23T02:04:11;3.10;;;2.10;;
56171;SDS011;42052;41.634;-0.946;2023-03-23T02:07:00;2.78;;;2.03;;
56171;SDS011;42052;41.634;-0.946;2023-03-23T02:09:47;3.38;;;1.80;;
56171;SDS011;42052;41.634;-0.946;2023-03-23T02:12:34;2.80;;;1.85;;
56171;SDS011;42052;41.634;-0.946;2023-03-23T02:15:21;2.53;;;2.10;;
56171;SDS011;42052;41.634;-0.946;2023-03-23T02:18:31;2.72;;;1.80;;
56171;SDS011;42052;41.634;-0.946;2023-03-23T02:21:25;2.45;;;2.00;;
56171;SDS011;42052;41.634;-0.946;2023-03-23T02:27:08;3.90;;;2.25;;
56171;SDS011;42052;41.634;-0.946;2023-03-23T02:36:10;3.95;;;2.20;;
56171;SDS011;42052;41.634;-0.946;2023-03-23T02:39:12;2.25;;;1.77;;
56171;SDS011;42052;41.634;-0.946;2023-03-23T02:42:05;2.60;;;1.90;;
56171;SDS011;42052;41.634;-0.946;2023-03-23T02:44:52;2.78;;;2.10;;
56171;SDS011;42052;41.634;-0.946;2023-03-23T02:47:40;3.10;;;1.85;;
56171;SDS011;42052;41.634;-0.946;2023-03-23T02:50:27;2.35;;;1.80;;
56171;SDS011;42052;41.634;-0.946;2023-03-23T02:53:19;2.63;;;1.90;;
56171;SDS011;42052;41.634;-0.946;2023-03-23T02:56:08;2.47;;;2.00;;
56171;SDS011;42052;41.634;-0.946;2023-03-23T02:58:55;2.47;;;1.88;;
56171;SDS011;42052;41.634;-0.946;2023-03-23T03:04:28;2.67;;;1.80;;
56171;SDS011;42052;41.634;-0.946;2023-03-23T03:07:33;5.47;;;2.08;;
56171;SDS011;42052;41.634;-0.946;2023-03-23T03:13:47;2.17;;;1.83;;
56171;SDS011;42052;41.634;-0.946;2023-03-23T03:16:56;3.42;;;2.13;;
56171;SDS011;42052;41.634;-0.946;2023-03-23T03:19:58;2.97;;;2.08;;
56171;SDS011;42052;41.634;-0.946;2023-03-23T03:22:54;3.22;;;2.08;;
56171;SDS011;42052;41.634;-0.946;2023-03-23T03:25:42;2.42;;;1.90;;
56171;SDS011;42052;41.634;-0.946;2023-03-23T03:28:32;3.03;;;2.05;;
56171;SDS011;42052;41.634;-0.946;2023-03-23T03:31:20;3.20;;;2.10;;
56171;SDS011;42052;41.634;-0.946;2023-03-23T03:34:13;3.40;;;2.10;;
56171;SDS011;42052;41.634;-0.946;2023-03-23T03:37:03;3.15;;;2.17;;
56171;SDS011;42052;41.634;-0.946;2023-03-23T03:39:51;2.75;;;2.00;;
56171;SDS011;42052;41.634;-0.946;2023-03-23T03:42:37;2.65;;;2.08;;
56171;SDS011;42052;41.634;-0.946;2023-03-23T03:45:24;2.92;;;2.10;;
56171;SDS011;42052;41.634;-0.946;2023-03-23T03:48:10;3.92;;;2.47;;
56171;SDS011;42052;41.634;-0.946;2023-03-23T03:50:57;3.88;;;2.20;;
56171;SDS011;42052;41.634;-0.946;2023-03-23T03:53:45;4.80;;;2.30;;
56171;SDS011;42052;41.634;-0.946;2023-03-23T03:56:31;3.00;;;2.10;;
56171;SDS011;42052;41.634;-0.946;2023-03-23T03:59:21;3.17;;;2.20;;
56171;SDS011;42052;41.634;-0.946;2023-03-23T04:02:07;3.20;;;2.13;;
56171;SDS011;42052;41.634;-0.946;2023-03-23T04:04:53;2.80;;;2.17;;
56171;SDS011;42052;41.634;-0.946;2023-03-23T04:07:39;2.60;;;2.15;;
56171;SDS011;42052;41.634;-0.946;2023-03-23T04:10:27;3.35;;;2.20;;
56171;SDS011;42052;41.634;-0.946;2023-03-23T04:13:14;2.67;;;2.20;;
56171;SDS011;42052;41.634;-0.946;2023-03-23T04:16:00;2.28;;;1.88;;
56171;SDS011;42052;41.634;-0.946;2023-03-23T04:18:47;3.83;;;2.10;;
56171;SDS011;42052;41.634;-0.946;2023-03-23T04:21:34;3.20;;;2.20;;
56171;SDS011;42052;41.634;-0.946;2023-03-23T04:24:20;3.38;;;2.30;;
56171;SDS011;42052;41.634;-0.946;2023-03-23T04:27:09;2.53;;;2.00;;
56171;SDS011;42052;41.634;-0.946;2023-03-23T04:29:58;4.13;;;2.28;;
56171;SDS011;42052;41.634;-0.946;2023-03-23T04:32:45;2.67;;;2.00;;
56171;SDS011;42052;41.634;-0.946;2023-03-23T04:35:35;3.38;;;2.20;;
56171;SDS011;42052;41.634;-0.946;2023-03-23T04:38:22;2.90;;;2.25;;
56171;SDS011;42052;41.634;-0.946;2023-03-23T04:41:09;2.58;;;2.20;;
56171;SDS011;42052;41.634;-0.946;2023-03-23T04:43:56;3.25;;;2.10;;
56171;SDS011;42052;41.634;-0.946;2023-03-23T04:46:48;2.90;;;2.10;;
56171;SDS011;42052;41.634;-0.946;2023-03-23T04:49:39;3.38;;;2.03;;
56171;SDS011;42052;41.634;-0.946;2023-03-23T04:52:25;4.03;;;2.20;;
56171;SDS011;42052;41.634;-0.946;2023-03-23T04:55:13;3.42;;;2.30;;
56171;SDS011;42052;41.634;-0.946;2023-03-23T04:58:00;3.88;;;2.22;;
56171;SDS011;42052;41.634;-0.946;2023-03-23T05:00:46;3.33;;;2.03;;
56171;SDS011;42052;41.634;-0.946;2023-03-23T05:03:34;4.00;;;2.00;;
56171;SDS011;42052;41.634;-0.946;2023-03-23T05:06:21;3.22;;;2.30;;
56171;SDS011;42052;41.634;-0.946;2023-03-23T05:09:07;2.75;;;2.10;;
56171;SDS011;42052;41.634;-0.946;2023-03-23T05:11:53;3.05;;;2.10;;
56171;SDS011;42052;41.634;-0.946;2023-03-23T05:14:42;2.35;;;2.05;;
56171;SDS011;42052;41.634;-0.946;2023-03-23T05:17:28;2.25;;;2.03;;
56171;SDS011;42052;41.634;-0.946;2023-03-23T05:20:16;3.35;;;2.15;;
56171;SDS011;42052;41.634;-0.946;2023-03-23T05:23:05;2.38;;;2.03;;
56171;SDS011;42052;41.634;-0.946;2023-03-23T05:25:52;4.93;;;1.90;;
56171;SDS011;42052;41.634;-0.946;2023-03-23T05:28:45;2.58;;;2.05;;
56171;SDS011;42052;41.634;-0.946;2023-03-23T05:31:31;2.72;;;2.00;;
56171;SDS011;42052;41.634;-0.946;2023-03-23T05:34:18;4.10;;;1.80;;
56171;SDS011;42052;41.634;-0.946;2023-03-23T05:37:04;2.85;;;1.88;;
56171;SDS011;42052;41.634;-0.946;2023-03-23T05:39:50;3.55;;;2.00;;
56171;SDS011;42052;41.634;-0.946;2023-03-23T05:42:39;3.22;;;2.00;;
56171;SDS011;42052;41.634;-0.946;2023-03-23T05:45:26;2.50;;;1.92;;
56171;SDS011;42052;41.634;-0.946;2023-03-23T05:48:13;4.07;;;2.30;;
56171;SDS011;42052;41.634;-0.946;2023-03-23T05:50:59;2.63;;;2.10;;
56171;SDS011;42052;41.634;-0.946;2023-03-23T05:53:45;4.18;;;2.00;;
56171;SDS011;42052;41.634;-0.946;2023-03-23T05:56:32;2.92;;;1.95;;
56171;SDS011;42052;41.634;-0.946;2023-03-23T05:59:19;2.33;;;1.98;;
56171;SDS011;42052;41.634;-0.946;2023-03-23T06:02:05;2.85;;;2.13;;
56171;SDS011;42052;41.634;-0.946;2023-03-23T06:04:51;2.65;;;2.10;;
56171;SDS011;42052;41.634;-0.946;2023-03-23T06:07:42;2.95;;;2.00;;
56171;SDS011;42052;41.634;-0.946;2023-03-23T06:10:28;2.83;;;2.20;;
56171;SDS011;42052;41.634;-0.946;2023-03-23T06:13:16;2.13;;;1.85;;
56171;SDS011;42052;41.634;-0.946;2023-03-23T06:16:03;2.90;;;2.17;;
56171;SDS011;42052;41.634;-0.946;2023-03-23T06:18:49;3.10;;;2.17;;
56171;SDS011;42052;41.634;-0.946;2023-03-23T06:21:36;3.35;;;2.05;;
56171;SDS011;42052;41.634;-0.946;2023-03-23T06:24:22;2.85;;;1.95;;
56171;SDS011;42052;41.634;-0.946;2023-03-23T06:27:08;2.55;;;1.90;;
56171;SDS011;42052;41.634;-0.946;2023-03-23T06:29:55;2.80;;;2.05;;
56171;SDS011;42052;41.634;-0.946;2023-03-23T06:32:42;2.92;;;1.92;;
56171;SDS011;42052;41.634;-0.946;2023-03-23T06:35:31;3.03;;;2.10;;
56171;SDS011;42052;41.634;-0.946;2023-03-23T06:38:18;2.58;;;2.00;;
56171;SDS011;42052;41.634;-0.946;2023-03-23T06:41:04;2.22;;;1.83;;
56171;SDS011;42052;41.634;-0.946;2023-03-23T06:43:50;3.35;;;2.10;;
56171;SDS011;42052;41.634;-0.946;2023-03-23T06:46:37;2.30;;;1.80;;
56171;SDS011;42052;41.634;-0.946;2023-03-23T06:49:23;2.88;;;1.85;;
56171;SDS011;42052;41.634;-0.946;2023-03-23T06:52:09;3.70;;;2.20;;
56171;SDS011;42052;41.634;-0.946;2023-03-23T06:54:55;2.88;;;1.98;;
56171;SDS011;42052;41.634;-0.946;2023-03-23T06:57:41;4.20;;;2.00;;
56171;SDS011;42052;41.634;-0.946;2023-03-23T07:00:28;3.03;;;1.90;;
56171;SDS011;42052;41.634;-0.946;2023-03-23T07:03:15;2.53;;;1.92;;
56171;SDS011;42052;41.634;-0.946;2023-03-23T07:06:01;2.47;;;2.03;;
56171;SDS011;42052;41.634;-0.946;2023-03-23T07:08:48;3.17;;;2.20;;
56171;SDS011;42052;41.634;-0.946;2023-03-23T07:11:35;3.20;;;2.00;;
56171;SDS011;42052;41.634;-0.946;2023-03-23T07:14:21;2.88;;;1.83;;
56171;SDS011;42052;41.634;-0.946;2023-03-23T07:17:07;2.35;;;2.00;;
56171;SDS011;42052;41.634;-0.946;2023-03-23T07:19:54;2.95;;;2.10;;
56171;SDS011;42052;41.634;-0.946;2023-03-23T07:22:40;3.55;;;2.25;;
56171;SDS011;42052;41.634;-0.946;2023-03-23T07:25:27;2.80;;;1.90;;
56171;SDS011;42052;41.634;-0.946;2023-03-23T07:28:13;2.65;;;1.90;;
56171;SDS011;42052;41.634;-0.946;2023-03-23T07:31:00;3.20;;;2.15;;
56171;SDS011;42052;41.634;-0.946;2023-03-23T07:33:46;3.80;;;2.47;;
56171;SDS011;42052;41.634;-0.946;2023-03-23T07:36:33;4.15;;;2.20;;
56171;SDS011;42052;41.634;-0.946;2023-03-23T07:39:22;2.47;;;2.08;;
56171;SDS011;42052;41.634;-0.946;2023-03-23T07:42:10;4.35;;;2.35;;
56171;SDS011;42052;41.634;-0.946;2023-03-23T07:44:56;3.13;;;2.00;;
56171;SDS011;42052;41.634;-0.946;2023-03-23T07:47:42;3.05;;;2.00;;
56171;SDS011;42052;41.634;-0.946;2023-03-23T07:50:29;3.28;;;2.10;;
56171;SDS011;42052;41.634;-0.946;2023-03-23T07:53:16;3.03;;;1.98;;
56171;SDS011;42052;41.634;-0.946;2023-03-23T07:56:02;3.65;;;2.08;;
56171;SDS011;42052;41.634;-0.946;2023-03-23T07:58:49;4.28;;;2.30;;
56171;SDS011;42052;41.634;-0.946;2023-03-23T08:01:35;2.80;;;2.00;;
56171;SDS011;42052;41.634;-0.946;2023-03-23T08:04:21;2.55;;;1.88;;
56171;SDS011;42052;41.634;-0.946;2023-03-23T08:07:07;2.45;;;2.15;;
56171;SDS011;42052;41.634;-0.946;2023-03-23T08:09:53;3.22;;;2.25;;
56171;SDS011;42052;41.634;-0.946;2023-03-23T08:12:41;2.92;;;2.20;;
56171;SDS011;42052;41.634;-0.946;2023-03-23T08:15:27;2.90;;;2.17;;
56171;SDS011;42052;41.634;-0.946;2023-03-23T08:18:14;4.35;;;2.28;;
56171;SDS011;42052;41.634;-0.946;2023-03-23T08:21:01;2.63;;;1.85;;
56171;SDS011;42052;41.634;-0.946;2023-03-23T08:23:49;3.25;;;2.30;;
56171;SDS011;42052;41.634;-0.946;2023-03-23T08:26:35;2.80;;;2.00;;
56171;SDS011;42052;41.634;-0.946;2023-03-23T08:29:23;2.65;;;1.90;;
56171;SDS011;42052;41.634;-0.946;2023-03-23T08:32:10;2.55;;;1.90;;
56171;SDS011;42052;41.634;-0.946;2023-03-23T08:34:56;4.20;;;2.10;;
56171;SDS011;42052;41.634;-0.946;2023-03-23T08:37:43;2.70;;;1.90;;
56171;SDS011;42052;41.634;-0.946;2023-03-23T08:40:30;2.58;;;2.28;;
56171;SDS011;42052;41.634;-0.946;2023-03-23T08:43:17;3.35;;;2.30;;
56171;SDS011;42052;41.634;-0.946;2023-03-23T08:46:04;3.58;;;2.38;;
56171;SDS011;42052;41.634;-0.946;2023-03-23T08:48:54;2.22;;;2.00;;
56171;SDS011;42052;41.634;-0.946;2023-03-23T08:51:40;3.03;;;2.00;;
56171;SDS011;42052;41.634;-0.946;2023-03-23T08:54:27;2.83;;;1.90;;
56171;SDS011;42052;41.634;-0.946;2023-03-23T08:57:15;3.45;;;2.17;;
56171;SDS011;42052;41.634;-0.946;2023-03-23T09:00:04;3.30;;;2.22;;
56171;SDS011;42052;41.634;-0.946;2023-03-23T09:03:03;3.30;;;2.00;;
56171;SDS011;42052;41.634;-0.946;2023-03-23T09:05:49;3.25;;;2.10;;
56171;SDS011;42052;41.634;-0.946;2023-03-23T09:08:35;2.40;;;1.90;;
56171;SDS011;42052;41.634;-0.946;2023-03-23T09:11:22;3.90;;;2.03;;
56171;SDS011;42052;41.634;-0.946;2023-03-23T09:14:08;3.80;;;2.03;;
56171;SDS011;42052;41.634;-0.946;2023-03-23T09:16:56;2.25;;;1.98;;
56171;SDS011;42052;41.634;-0.946;2023-03-23T09:19:42;2.35;;;1.90;;
56171;SDS011;42052;41.634;-0.946;2023-03-23T09:22:28;2.97;;;2.08;;
56171;SDS011;42052;41.634;-0.946;2023-03-23T09:25:15;2.20;;;2.00;;
56171;SDS011;42052;41.634;-0.946;2023-03-23T09:28:06;2.35;;;1.80;;
56171;SDS011;42052;41.634;-0.946;2023-03-23T09:30:54;2.55;;;1.95;;
56171;SDS011;42052;41.634;-0.946;2023-03-23T09:33:42;2.88;;;2.15;;
56171;SDS011;42052;41.634;-0.946;2023-03-23T09:36:30;2.38;;;2.17;;
56171;SDS011;42052;41.634;-0.946;2023-03-23T09:39:17;2.92;;;2.05;;
56171;SDS011;42052;41.634;-0.946;2023-03-23T09:45:07;2.70;;;2.10;;
56171;SDS011;42052;41.634;-0.946;2023-03-23T09:51:00;2.47;;;1.80;;
56171;SDS011;42052;41.634;-0.946;2023-03-23T09:57:03;2.63;;;1.77;;
56171;SDS011;42052;41.634;-0.946;2023-03-23T10:05:53;2.17;;;1.63;;
56171;SDS011;42052;41.634;-0.946;2023-03-23T10:08:44;2.58;;;1.70;;
56171;SDS011;42052;41.634;-0.946;2023-03-23T10:21:03;2.03;;;1.77;;
56171;SDS011;42052;41.634;-0.946;2023-03-23T10:23:52;2.28;;;1.70;;
56171;SDS011;42052;41.634;-0.946;2023-03-23T10:26:48;2.08;;;1.60;;
56171;SDS011;42052;41.634;-0.946;2023-03-23T10:36:05;1.92;;;1.60;;
56171;SDS011;42052;41.634;-0.946;2023-03-23T10:39:05;1.77;;;1.50;;
56171;SDS011;42052;41.634;-0.946;2023-03-23T10:41:53;2.17;;;1.80;;
56171;SDS011;42052;41.634;-0.946;2023-03-23T10:44:39;3.33;;;1.73;;
56171;SDS011;42052;41.634;-0.946;2023-03-23T10:47:26;2.28;;;1.50;;
56171;SDS011;42052;41.634;-0.946;2023-03-23T10:50:13;2.42;;;1.60;;
56171;SDS011;42052;41.634;-0.946;2023-03-23T10:53:03;2.10;;;1.63;;
56171;SDS011;42052;41.634;-0.946;2023-03-23T10:55:58;2.67;;;1.80;;
56171;SDS011;42052;41.634;-0.946;2023-03-23T10:58:45;1.63;;;1.52;;
56171;SDS011;42052;41.634;-0.946;2023-03-23T11:01:32;1.90;;;1.70;;
56171;SDS011;42052;41.634;-0.946;2023-03-23T11:04:20;2.88;;;1.77;;
56171;SDS011;42052;41.634;-0.946;2023-03-23T11:07:12;1.60;;;1.42;;
56171;SDS011;42052;41.634;-0.946;2023-03-23T11:10:11;1.77;;;1.42;;
56171;SDS011;42052;41.634;-0.946;2023-03-23T11:13:12;1.95;;;1.63;;
56171;SDS011;42052;41.634;-0.946;2023-03-23T11:16:00;3.25;;;1.45;;
56171;SDS011;42052;41.634;-0.946;2023-03-23T11:18:46;1.70;;;1.60;;
56171;SDS011;42052;41.634;-0.946;2023-03-23T11:21:33;1.88;;;1.63;;
56171;SDS011;42052;41.634;-0.946;2023-03-23T11:24:21;1.73;;;1.40;;
56171;SDS011;42052;41.634;-0.946;2023-03-23T11:27:09;1.77;;;1.58;;
56171;SDS011;42052;41.634;-0.946;2023-03-23T11:30:19;1.90;;;1.40;;
56171;SDS011;42052;41.634;-0.946;2023-03-23T11:33:07;2.38;;;1.60;;
56171;SDS011;42052;41.634;-0.946;2023-03-23T11:35:53;2.13;;;1.60;;
56171;SDS011;42052;41.634;-0.946;2023-03-23T11:38:42;1.70;;;1.40;;
56171;SDS011;42052;41.634;-0.946;2023-03-23T11:41:31;1.73;;;1.50;;
56171;SDS011;42052;41.634;-0.946;2023-03-23T11:44:22;2.20;;;1.58;;
56171;SDS011;42052;41.634;-0.946;2023-03-23T11:53:48;1.65;;;1.40;;
56171;SDS011;42052;41.634;-0.946;2023-03-23T11:56:59;1.92;;;1.27;;
56171;SDS011;42052;41.634;-0.946;2023-03-23T11:59:45;1.50;;;1.40;;
56171;SDS011;42052;41.634;-0.946;2023-03-23T12:09:02;1.55;;;1.42;;
56171;SDS011;42052;41.634;-0.946;2023-03-23T12:36:44;1.50;;;1.30;;
56171;SDS011;42052;41.634;-0.946;2023-03-23T12:51:48;1.38;;;1.20;;
56171;SDS011;42052;41.634;-0.946;2023-03-23T12:54:58;1.33;;;1.10;;
56171;SDS011;42052;41.634;-0.946;2023-03-23T12:58:13;1.65;;;1.20;;
56171;SDS011;42052;41.634;-0.946;2023-03-23T13:01:10;1.35;;;1.20;;
56171;SDS011;42052;41.634;-0.946;2023-03-23T13:04:08;1.30;;;1.20;;
56171;SDS011;42052;41.634;-0.946;2023-03-23T13:06:58;1.60;;;1.50;;
56171;SDS011;42052;41.634;-0.946;2023-03-23T13:09:50;1.63;;;1.40;;
56171;SDS011;42052;41.634;-0.946;2023-03-23T13:12:49;1.35;;;1.25;;
56171;SDS011;42052;41.634;-0.946;2023-03-23T13:16:12;1.40;;;1.30;;
56171;SDS011;42052;41.634;-0.946;2023-03-23T13:22:07;1.20;;;1.10;;
56171;SDS011;42052;41.634;-0.946;2023-03-23T13:25:00;1.55;;;1.20;;
56171;SDS011;42052;41.634;-0.946;2023-03-23T13:27:59;1.85;;;1.20;;
56171;SDS011;42052;41.634;-0.946;2023-03-23T13:30:56;1.15;;;1.00;;
56171;SDS011;42052;41.634;-0.946;2023-03-23T13:33:51;1.30;;;1.20;;
56171;SDS011;42052;41.634;-0.946;2023-03-23T13:36:43;1.25;;;1.10;;
56171;SDS011;42052;41.634;-0.946;2023-03-23T13:42:48;1.23;;;1.13;;
56171;SDS011;42052;41.634;-0.946;2023-03-23T13:45:42;1.38;;;1.02;;
56171;SDS011;42052;41.634;-0.946;2023-03-23T13:48:39;1.30;;;1.10;;
56171;SDS011;42052;41.634;-0.946;2023-03-23T13:51:47;2.22;;;1.20;;
56171;SDS011;42052;41.634;-0.946;2023-03-23T13:54:52;1.40;;;1.20;;
56171;SDS011;42052;41.634;-0.946;2023-03-23T14:03:48;1.33;;;1.15;;
56171;SDS011;42052;41.634;-0.946;2023-03-23T14:06:37;1.48;;;1.10;;
56171;SDS011;42052;41.634;-0.946;2023-03-23T14:09:28;1.45;;;1.27;;
56171;SDS011;42052;41.634;-0.946;2023-03-23T14:12:27;1.15;;;1.02;;
56171;SDS011;42052;41.634;-0.946;2023-03-23T14:15:14;2.70;;;1.05;;
56171;SDS011;42052;41.634;-0.946;2023-03-23T14:18:01;1.10;;;1.02;;
56171;SDS011;42052;41.634;-0.946;2023-03-23T14:20:49;2.15;;;1.20;;
56171;SDS011;42052;41.634;-0.946;2023-03-23T14:23:36;1.20;;;1.10;;
56171;SDS011;42052;41.634;-0.946;2023-03-23T14:26:22;1.42;;;1.10;;
56171;SDS011;42052;41.634;-0.946;2023-03-23T14:29:09;1.30;;;1.13;;
56171;SDS011;42052;41.634;-0.946;2023-03-23T14:31:58;1.55;;;1.08;;
56171;SDS011;42052;41.634;-0.946;2023-03-23T14:34:46;0.95;;;0.90;;
56171;SDS011;42052;41.634;-0.946;2023-03-23T14:37:33;1.13;;;0.95;;
56171;SDS011;42052;41.634;-0.946;2023-03-23T14:40:21;2.03;;;1.23;;
56171;SDS011;42052;41.634;-0.946;2023-03-23T14:43:08;1.80;;;1.10;;
56171;SDS011;42052;41.634;-0.946;2023-03-23T14:46:00;1.98;;;0.90;;
56171;SDS011;42052;41.634;-0.946;2023-03-23T14:48:50;1.10;;;1.00;;
56171;SDS011;42052;41.634;-0.946;2023-03-23T14:51:37;1.15;;;0.90;;
56171;SDS011;42052;41.634;-0.946;2023-03-23T14:54:24;1.75;;;1.23;;
56171;SDS011;42052;41.634;-0.946;2023-03-23T14:57:33;1.30;;;0.98;;
56171;SDS011;42052;41.634;-0.946;2023-03-23T15:00:23;1.30;;;1.02;;
56171;SDS011;42052;41.634;-0.946;2023-03-23T15:03:15;1.30;;;1.13;;
56171;SDS011;42052;41.634;-0.946;2023-03-23T15:06:05;1.63;;;1.00;;
56171;SDS011;42052;41.634;-0.946;2023-03-23T15:08:56;1.05;;;0.93;;
56171;SDS011;42052;41.634;-0.946;2023-03-23T15:12:02;1.35;;;0.95;;
56171;SDS011;42052;41.634;-0.946;2023-03-23T15:14:50;1.15;;;0.98;;
56171;SDS011;42052;41.634;-0.946;2023-03-23T15:17:39;1.00;;;0.88;;
56171;SDS011;42052;41.634;-0.946;2023-03-23T15:20:32;1.60;;;1.15;;
56171;SDS011;42052;41.634;-0.946;2023-03-23T15:23:33;1.65;;;1.10;;
56171;SDS011;42052;41.634;-0.946;2023-03-23T15:26:25;1.30;;;1.10;;
56171;SDS011;42052;41.634;-0.946;2023-03-23T15:29:18;1.23;;;1.10;;
56171;SDS011;42052;41.634;-0.946;2023-03-23T15:32:09;1.20;;;1.10;;
56171;SDS011;42052;41.634;-0.946;2023-03-23T15:34:56;1.58;;;1.08;;
56171;SDS011;42052;41.634;-0.946;2023-03-23T15:37:50;1.10;;;0.98;;
56171;SDS011;42052;41.634;-0.946;2023-03-23T15:40:48;1.23;;;1.08;;
56171;SDS011;42052;41.634;-0.946;2023-03-23T15:43:48;1.20;;;0.98;;
56171;SDS011;42052;41.634;-0.946;2023-03-23T15:46:47;1.17;;;1.08;;
56171;SDS011;42052;41.634;-0.946;2023-03-23T15:49:38;1.23;;;1.00;;
56171;SDS011;42052;41.634;-0.946;2023-03-23T15:52:24;1.75;;;1.10;;
56171;SDS011;42052;41.634;-0.946;2023-03-23T15:55:34;1.20;;;1.08;;
56171;SDS011;42052;41.634;-0.946;2023-03-23T15:58:22;1.08;;;0.90;;
56171;SDS011;42052;41.634;-0.946;2023-03-23T16:01:19;1.20;;;1.10;;
56171;SDS011;42052;41.634;-0.946;2023-03-23T16:06:56;1.20;;;1.10;;
56171;SDS011;42052;41.634;-0.946;2023-03-23T16:09:43;1.10;;;1.00;;
56171;SDS011;42052;41.634;-0.946;2023-03-23T16:12:30;1.00;;;0.90;;
56171;SDS011;42052;41.634;-0.946;2023-03-23T16:15:16;1.30;;;1.00;;
56171;SDS011;42052;41.634;-0.946;2023-03-23T16:18:03;1.27;;;1.10;;
56171;SDS011;42052;41.634;-0.946;2023-03-23T16:20:49;1.33;;;0.90;;
56171;SDS011;42052;41.634;-0.946;2023-03-23T16:23:35;1.80;;;1.05;;
56171;SDS011;42052;41.634;-0.946;2023-03-23T16:26:22;1.02;;;0.90;;
56171;SDS011;42052;41.634;-0.946;2023-03-23T16:29:09;1.10;;;1.00;;
56171;SDS011;42052;41.634;-0.946;2023-03-23T16:31:57;1.17;;;1.00;;
56171;SDS011;42052;41.634;-0.946;2023-03-23T16:34:44;1.00;;;0.88;;
56171;SDS011;42052;41.634;-0.946;2023-03-23T16:37:30;1.13;;;0.90;;
56171;SDS011;42052;41.634;-0.946;2023-03-23T16:40:18;1.70;;;1.10;;
56171;SDS011;42052;41.634;-0.946;2023-03-23T16:43:06;1.20;;;0.90;;
56171;SDS011;42052;41.634;-0.946;2023-03-23T16:45:54;1.33;;;1.00;;
56171;SDS011;42052;41.634;-0.946;2023-03-23T16:48:41;0.82;;;0.82;;
56171;SDS011;42052;41.634;-0.946;2023-03-23T16:51:27;1.00;;;0.90;;
56171;SDS011;42052;41.634;-0.946;2023-03-23T16:54:13;1.08;;;0.77;;
56171;SDS011;42052;41.634;-0.946;2023-03-23T16:57:00;1.15;;;1.05;;
56171;SDS011;42052;41.634;-0.946;2023-03-23T16:59:46;1.45;;;1.08;;
56171;SDS011;42052;41.634;-0.946;2023-03-23T17:02:32;1.15;;;1.00;;
56171;SDS011;42052;41.634;-0.946;2023-03-23T17:05:20;1.50;;;1.15;;
56171;SDS011;42052;41.634;-0.946;2023-03-23T17:08:08;1.30;;;0.93;;
56171;SDS011;42052;41.634;-0.946;2023-03-23T17:10:54;1.30;;;1.08;;
56171;SDS011;42052;41.634;-0.946;2023-03-23T17:13:40;1.00;;;0.90;;
56171;SDS011;42052;41.634;-0.946;2023-03-23T17:16:26;0.95;;;0.82;;
56171;SDS011;42052;41.634;-0.946;2023-03-23T17:19:13;2.17;;;1.00;;
56171;SDS011;42052;41.634;-0.946;2023-03-23T17:21:59;1.60;;;1.00;;
56171;SDS011;42052;41.634;-0.946;2023-03-23T17:24:46;1.00;;;0.88;;
56171;SDS011;42052;41.634;-0.946;2023-03-23T17:27:32;1.42;;;0.90;;
56171;SDS011;42052;41.634;-0.946;2023-03-23T17:30:18;1.25;;;0.88;;
56171;SDS011;42052;41.634;-0.946;2023-03-23T17:33:05;1.08;;;0.93;;
56171;SDS011;42052;41.634;-0.946;2023-03-23T17:35:51;1.35;;;1.00;;
56171;SDS011;42052;41.634;-0.946;2023-03-23T17:38:38;1.33;;;0.95;;
56171;SDS011;42052;41.634;-0.946;2023-03-23T17:41:24;0.80;;;0.80;;
56171;SDS011;42052;41.634;-0.946;2023-03-23T17:44:11;1.13;;;0.88;;
56171;SDS011;42052;41.634;-0.946;2023-03-23T17:46:57;1.13;;;0.90;;
56171;SDS011;42052;41.634;-0.946;2023-03-23T17:49:45;1.27;;;0.85;;
56171;SDS011;42052;41.634;-0.946;2023-03-23T17:52:32;1.30;;;1.10;;
56171;SDS011;42052;41.634;-0.946;2023-03-23T17:55:18;1.33;;;1.00;;
56171;SDS011;42052;41.634;-0.946;2023-03-23T17:58:04;1.13;;;0.98;;
56171;SDS011;42052;41.634;-0.946;2023-03-23T18:00:51;1.40;;;1.00;;
56171;SDS011;42052;41.634;-0.946;2023-03-23T18:03:38;0.88;;;0.70;;
56171;SDS011;42052;41.634;-0.946;2023-03-23T18:06:24;0.90;;;0.88;;
56171;SDS011;42052;41.634;-0.946;2023-03-23T18:09:10;0.95;;;0.88;;
56171;SDS011;42052;41.634;-0.946;2023-03-23T18:11:58;1.10;;;0.90;;
56171;SDS011;42052;41.634;-0.946;2023-03-23T18:14:44;0.88;;;0.80;;
56171;SDS011;42052;41.634;-0.946;2023-03-23T18:17:30;1.30;;;0.90;;
56171;SDS011;42052;41.634;-0.946;2023-03-23T18:20:18;1.00;;;0.90;;
56171;SDS011;42052;41.634;-0.946;2023-03-23T18:23:06;1.63;;;0.90;;
56171;SDS011;42052;41.634;-0.946;2023-03-23T18:25:52;1.58;;;1.10;;
56171;SDS011;42052;41.634;-0.946;2023-03-23T18:28:39;0.90;;;0.80;;
56171;SDS011;42052;41.634;-0.946;2023-03-23T18:31:27;0.90;;;0.80;;
56171;SDS011;42052;41.634;-0.946;2023-03-23T18:34:14;1.42;;;0.85;;
56171;SDS011;42052;41.634;-0.946;2023-03-23T18:37:00;1.20;;;1.00;;